Time;durP1;ratioP1;P1;durP2;ratioP2;P2;SDS_P1;SDS_P2;PMS_P1;PMS_P2;Temp;Humidity;BMP_temperature;BMP_pressure;BME280_temperature;BME280_humidity;BME280_pressure;Samples;Min_cycle;Max_cycle;Signal;HPM_P1;HPM_P2
2022/09/05 00:00:13;;;;;;;12.23;6.55;;;;;;;17.78;100.00;100648.34;5051329;28;20044;-70
2022/09/05 00:02:45;;;;;;;8.38;6.20;;;;;;;18.34;100.00;100697.16;5050179;28;20039;-70
2022/09/05 00:05:22;;;;;;;7.60;6.50;;;;;;;18.30;100.00;100702.50;5051419;28;20036;-70
2022/09/05 00:08:06;;;;;;;12.93;6.65;;;;;;;18.28;100.00;100706.91;5051389;28;20087;-70
2022/09/05 00:10:59;;;;;;;9.23;6.93;;;;;;;17.98;100.00;100704.88;5050942;28;20033;-69
2022/09/05 00:13:30;;;;;;;8.88;6.35;;;;;;;17.50;100.00;100639.41;5050085;28;20083;-70
2022/09/05 00:15:56;;;;;;;;;;;;;;;18.04;100.00;100703.75;5052043;28;20044;-70
2022/09/05 00:18:33;;;;;;;6.93;5.95;;;;;;;18.04;100.00;100709.69;5050510;28;20345;-69
2022/09/05 00:21:11;;;;;;;7.90;6.10;;;;;;;17.96;100.00;100701.53;5050088;28;20564;-71
2022/09/05 00:23:49;;;;;;;9.70;6.25;;;;;;;17.90;100.00;100658.06;5051354;28;20029;-70
2022/09/05 00:26:20;;;;;;;7.78;5.95;;;;;;;17.95;100.00;100688.72;5051485;28;20475;-70
2022/09/05 00:29:14;;;;;;;7.78;6.43;;;;;;;17.73;100.00;100688.88;5050939;28;20033;-72
2022/09/05 00:31:51;;;;;;;7.18;5.80;;;;;;;17.98;100.00;100686.84;5051150;28;20392;-71
2022/09/05 00:34:44;;;;;;;8.30;6.13;;;;;;;17.81;100.00;100585.63;5049463;28;20036;-70
2022/09/05 00:37:10;;;;;;;10.93;6.40;;;;;;;18.19;100.00;100631.78;5050588;28;20060;-70
2022/09/05 00:39:41;;;;;;;7.30;5.72;;;;;;;18.33;100.00;100702.34;5056000;28;20059;-71
2022/09/05 00:42:12;;;;;;;8.13;6.15;;;;;;;17.60;100.00;100613.19;5050995;28;20067;-70
2022/09/05 00:44:50;;;;;;;9.02;6.60;;;;;;;18.29;100.00;100699.09;5049857;28;20093;-70
2022/09/05 00:47:44;;;;;;;8.73;5.82;;;;;;;18.50;100.00;100713.53;5050364;28;20033;-70
2022/09/05 00:50:35;;;;;;;9.15;6.47;;;;;;;17.95;100.00;100701.59;5049322;28;20036;-70
2022/09/05 00:53:30;;;;;;;10.77;6.78;;;;;;;18.31;100.00;100697.28;5039151;28;20039;-70
2022/09/05 00:56:27;;;;;;;9.63;8.13;;;;;;;17.90;100.00;100695.84;5027988;28;20048;-70
2022/09/05 00:58:55;;;;;;;8.10;6.93;;;;;;;18.12;100.00;100691.34;5028007;28;20455;-70
2022/09/05 01:01:28;;;;;;;9.65;6.93;;;;;;;17.78;100.00;100626.94;5030843;28;20040;-71
2022/09/05 01:04:22;;;;;;;8.00;6.25;;;;;;;17.54;100.00;100610.06;5030554;28;20033;-70
2022/09/05 01:07:09;;;;;;;9.32;6.75;;;;;;;17.81;100.00;100686.78;5028858;28;20049;-70
2022/09/05 01:09:44;;;;;;;7.97;5.93;;;;;;;18.22;100.00;100679.72;5028959;28;20139;-70
2022/09/05 01:12:19;;;;;;;8.02;5.93;;;;;;;18.11;100.00;100689.66;5029090;28;20128;-71
2022/09/05 01:15:00;;;;;;;7.38;6.45;;;;;;;18.04;100.00;100678.81;5030485;28;20033;-71
2022/09/05 01:17:50;;;;;;;7.80;6.55;;;;;;;18.15;100.00;100670.59;5030490;28;20029;-71
2022/09/05 01:20:53;;;;;;;7.53;6.20;;;;;;;18.34;100.00;100686.00;5030678;28;20037;-70
2022/09/05 01:23:40;;;;;;;10.27;6.85;;;;;;;17.88;100.00;100695.06;5030291;28;20037;-70
2022/09/05 01:26:36;;;;;;;11.85;7.13;;;;;;;17.90;100.00;100696.69;5030130;28;20121;-70
2022/09/05 01:29:07;;;;;;;11.43;6.53;;;;;;;17.55;100.00;100627.19;5030495;28;20102;-70
2022/09/05 01:31:50;;;;;;;11.18;6.18;;;;;;;17.74;100.00;100692.28;5029983;28;20037;-72
2022/09/05 01:34:32;;;;;;;8.75;6.60;;;;;;;17.05;100.00;100570.31;5030300;28;20033;-70
2022/09/05 01:37:13;;;;;;;8.45;7.03;;;;;;;17.64;100.00;100684.16;5029053;28;20079;-72
2022/09/05 01:39:57;;;;;;;6.32;5.50;;;;;;;17.83;100.00;100681.56;5030119;28;20037;-70
2022/09/05 01:43:04;;;;;;;6.28;5.68;;;;;;;17.13;100.00;100624.78;5029929;28;20029;-70
2022/09/05 01:45:46;;;;;;;6.50;5.57;;;;;;;17.26;100.00;100623.31;5077911;28;20064;-71
2022/09/05 01:48:36;;;;;;;8.27;6.78;;;;;;;17.71;100.00;100687.28;5035810;28;20047;-71
2022/09/05 01:51:19;;;;;;;8.05;6.57;;;;;;;17.66;100.00;100681.53;5030056;28;20543;-71
2022/09/05 01:54:14;;;;;;;8.27;7.47;;;;;;;17.44;100.00;100657.63;5030557;28;20407;-72
2022/09/05 01:56:45;;;;;;;11.30;7.07;;;;;;;17.58;100.00;100652.75;5020613;28;20136;-75
2022/09/05 01:59:35;;;;;;;9.00;8.10;;;;;;;17.21;100.00;100674.91;5049269;28;20116;-70
2022/09/05 02:02:27;;;;;;;8.85;7.30;;;;;;;17.04;100.00;100664.56;5052111;28;20135;-70
2022/09/05 02:05:11;;;;;;;8.98;7.45;;;;;;;17.21;100.00;100654.34;5038452;28;20045;-70
2022/09/05 02:07:49;;;;;;;9.13;7.30;;;;;;;17.24;100.00;100600.25;5053783;28;20028;-71
2022/09/05 02:10:39;;;;;;;10.95;7.63;;;;;;;17.22;100.00;100655.19;5053444;28;20069;-70
2022/09/05 02:13:47;;;;;;;9.68;7.07;;;;;;;17.76;100.00;100644.19;5053546;28;20082;-72
2022/09/05 02:16:37;;;;;;;8.40;7.50;;;;;;;17.33;100.00;100640.97;5011058;28;20046;-70
2022/09/05 02:19:14;;;;;;;7.97;6.93;;;;;;;17.41;100.00;100639.81;5011411;28;20496;-70
2022/09/05 02:21:50;;;;;;;8.95;6.80;;;;;;;17.18;100.00;100604.84;5041418;28;20045;-70
2022/09/05 02:24:25;;;;;;;11.63;6.50;;;;;;;17.32;100.00;100647.03;5053002;28;20123;-70
2022/09/05 02:27:13;;;;;;;6.57;5.95;;;;;;;17.32;100.00;100643.59;5053309;28;20029;-72
2022/09/05 02:29:52;;;;;;;7.88;5.80;;;;;;;17.38;100.00;100633.06;5049192;28;20516;-71
2022/09/05 02:32:21;;;;;;;7.35;5.45;;;;;;;16.56;100.00;100519.47;5052036;28;20392;-71
2022/09/05 02:35:02;;;;;;;6.38;5.25;;;;;;;17.18;100.00;100651.94;5053095;28;20041;-69
2022/09/05 02:37:39;;;;;;;5.10;4.60;;;;;;;16.95;100.00;100581.91;5053071;28;20029;-71
2022/09/05 02:40:16;;;;;;;5.90;4.78;;;;;;;17.52;100.00;100663.31;5053146;28;20036;-70
2022/09/05 02:42:57;;;;;;;7.32;5.05;;;;;;;17.01;100.00;100595.34;5053216;28;20054;-70
2022/09/05 02:45:31;;;;;;;5.85;5.25;;;;;;;17.37;100.00;100659.69;5051606;28;20041;-70
2022/09/05 02:48:18;;;;;;;5.72;5.15;;;;;;;17.08;100.00;100658.38;5052870;28;20483;-70
2022/09/05 02:51:06;;;;;;;6.95;5.10;;;;;;;17.27;100.00;100656.66;5052842;28;20517;-71
2022/09/05 02:53:34;;;;;;;7.10;5.20;;;;;;;16.95;100.00;100598.16;5052695;28;20536;-71
2022/09/05 02:56:11;;;;;;;8.98;5.05;;;;;;;17.07;100.00;100677.25;5053203;28;20044;-71
2022/09/05 02:58:45;;;;;;;5.47;4.90;;;;;;;17.21;100.00;100671.53;5051374;28;20388;-72
2022/09/05 03:01:53;;;;;;;5.93;4.90;;;;;;;17.13;100.00;100676.19;5052279;28;20025;-69
2022/09/05 03:04:40;;;;;;;6.05;4.55;;;;;;;17.46;100.00;100679.81;5041745;28;20178;-70
2022/09/05 03:07:33;;;;;;;4.93;4.43;;;;;;;17.51;100.00;100682.22;5052428;28;20033;-70
2022/09/05 03:10:18;;;;;;;9.27;4.70;;;;;;;17.85;100.00;100682.31;5051213;28;20481;-72
2022/09/05 03:13:08;;;;;;;7.55;4.85;;;;;;;17.09;100.00;100618.91;5040355;28;20044;-71
2022/09/05 03:15:55;;;;;;;9.57;6.60;;;;;;;17.29;100.00;100698.56;5051689;28;20020;-70
2022/09/05 03:18:30;;;;;;;9.65;6.90;;;;;;;17.39;100.00;100685.31;5052289;28;20036;-71
2022/09/05 03:21:23;;;;;;;10.80;7.68;;;;;;;17.40;100.00;100684.38;5052236;28;20116;-71
2022/09/05 03:24:16;;;;;;;11.35;8.25;;;;;;;17.41;100.00;100678.38;5052415;28;20414;-71
2022/09/05 03:27:03;;;;;;;11.02;8.05;;;;;;;17.50;100.00;100691.66;5051908;28;20091;-71
2022/09/05 03:29:53;;;;;;;10.02;6.20;;;;;;;17.73;100.00;100693.19;5051019;28;20566;-70
2022/09/05 03:32:32;;;;;;;13.15;7.05;;;;;;;17.27;100.00;100641.22;5050492;28;20491;-72
2022/09/05 03:35:49;;;;;;;7.22;5.22;;;;;;;18.66;100.00;100719.59;5052210;28;20083;-71
2022/09/05 03:38:33;;;;;;;6.90;4.80;;;;;;;17.46;100.00;100705.53;5051142;28;20032;-71
2022/09/05 03:41:07;;;;;;;6.70;4.40;;;;;;;17.10;100.00;100656.56;5049715;28;20028;-70
2022/09/05 03:44:04;;;;;;;7.82;5.05;;;;;;;17.94;100.00;100708.50;5050222;28;20053;-70
2022/09/05 03:47:00;;;;;;;6.25;4.70;;;;;;;17.42;100.00;100721.16;5050562;28;20037;-71
2022/09/05 03:49:47;;;;;;;8.63;4.70;;;;;;;17.94;100.00;100730.81;5052812;28;20099;-72
2022/09/05 03:52:34;;;;;;;8.50;6.05;;;;;;;17.27;100.00;100728.63;5051199;28;20033;-71
2022/09/05 03:55:30;;;;;;;11.00;7.13;;;;;;;17.37;100.00;100723.09;5051235;28;20024;-71
2022/09/05 03:58:01;;;;;;;12.07;6.32;;;;;;;17.76;100.00;100719.63;5050017;28;20039;-69
2022/09/05 04:00:32;;;;;;;9.55;5.05;;;;;;;20.20;100.00;100741.63;5049702;28;20025;-70
2022/09/05 04:03:25;;;;;;;15.25;7.85;;;;;;;17.79;100.00;100744.34;5051227;28;20041;-71
2022/09/05 04:06:06;;;;;;;15.05;8.57;;;;;;;17.31;100.00;100731.94;5049912;28;20094;-71
2022/09/05 04:08:32;;;;;;;13.30;8.55;;;;;;;17.47;100.00;100735.47;5051474;28;20036;-72
2022/09/05 04:11:09;;;;;;;13.25;9.23;;;;;;;17.23;100.00;100732.22;5032965;28;20423;-68
2022/09/05 04:13:44;;;;;;;15.57;8.57;;;;;;;17.29;100.00;100713.16;5031657;28;20052;-69
2022/09/05 04:16:41;;;;;;;13.25;8.85;;;;;;;17.33;100.00;100732.69;5031201;28;20033;-70
2022/09/05 04:19:27;;;;;;;16.27;9.43;;;;;;;17.32;100.00;100734.41;5031112;28;20029;-70
2022/09/05 04:22:20;;;;;;;11.77;8.30;;;;;;;17.45;100.00;100721.84;5030794;28;20029;-69
2022/09/05 04:25:02;;;;;;;17.98;7.85;;;;;;;17.48;100.00;100720.88;5030876;28;20044;-70
2022/09/05 04:27:33;;;;;;;13.77;8.25;;;;;;;17.06;100.00;100733.84;5030861;28;20480;-70
2022/09/05 04:30:02;;;;;;;29.70;9.30;;;;;;;19.55;100.00;100680.66;5030616;28;20025;-70
2022/09/05 04:32:30;;;;;;;9.52;6.50;;;;;;;17.48;100.00;100744.88;5030828;28;20033;-70
2022/09/05 04:35:46;;;;;;;7.90;5.53;;;;;;;17.48;100.00;100750.00;5030455;28;20059;-69
2022/09/05 04:38:14;;;;;;;7.75;5.68;;;;;;;17.32;100.00;100687.31;5009158;28;20034;-71
2022/09/05 04:40:48;;;;;;;16.15;6.35;;;;;;;17.37;100.00;100708.53;5008072;28;20096;-70
2022/09/05 04:43:19;;;;;;;30.48;8.50;;;;;;;18.97;100.00;100753.28;5029128;28;20049;-68
2022/09/05 04:45:50;;;;;;;11.75;6.22;;;;;;;18.82;100.00;100730.81;5040879;28;20041;-71
2022/09/05 04:48:22;;;;;;;10.25;5.90;;;;;;;17.54;100.00;100754.06;5030603;28;20037;-70
2022/09/05 04:51:07;;;;;;;;;;;;;;;17.70;100.00;100766.19;5031307;28;20029;-69
2022/09/05 04:54:06;;;;;;;8.80;5.93;;;;;;;17.46;100.00;100709.81;5030193;28;19932;-71
2022/09/05 04:56:40;;;;;;;6.85;5.45;;;;;;;17.78;100.00;100771.84;5029886;28;20030;-70
2022/09/05 04:59:15;;;;;;;7.15;5.88;;;;;;;17.56;100.00;100783.97;5030170;28;20029;-70
2022/09/05 05:01:50;;;;;;;9.73;6.03;;;;;;;17.80;100.00;100771.75;5045347;28;20025;-70
2022/09/05 05:04:21;;;;;;;7.32;5.90;;;;;;;17.25;100.00;100670.50;5029678;28;20029;-69
2022/09/05 05:06:54;;;;;;;7.40;5.85;;;;;;;17.21;100.00;100681.81;5029679;28;20033;-70
2022/09/05 05:09:47;;;;;;;8.30;5.82;;;;;;;18.15;100.00;100797.56;5030101;28;20065;-70
2022/09/05 05:12:31;;;;;;;7.07;5.97;;;;;;;18.86;100.00;100798.50;5044821;28;20658;-69
2022/09/05 05:15:03;;;;;;;7.65;5.63;;;;;;;17.91;100.00;100746.38;5045038;28;20063;-70
2022/09/05 05:17:28;;;;;;;;;;;;;;;18.93;100.00;100802.47;5030815;28;20041;-71
2022/09/05 05:20:32;;;;;;;9.48;6.25;;;;;;;18.82;100.00;100812.44;5030108;28;19921;-71
2022/09/05 05:23:04;;;;;;;7.50;6.38;;;;;;;18.79;100.00;100746.44;5045477;28;20440;-70
2022/09/05 05:25:39;;;;;;;11.90;5.90;;;;;;;19.72;100.00;100810.44;5030160;28;20029;-71
2022/09/05 05:28:30;;;;;;;9.07;5.68;;;;;;;20.17;100.00;100829.56;5030436;28;20032;-71
2022/09/05 05:31:11;;;;;;;11.37;5.80;;;;;;;20.05;100.00;100831.06;5030340;28;20108;-70
2022/09/05 05:33:39;;;;;;;8.23;5.57;;;;;;;19.15;100.00;100722.31;5045689;28;20291;-70
2022/09/05 05:36:13;;;;;;;18.10;8.23;;;;;;;20.34;100.00;100843.25;5034197;28;20025;-71
2022/09/05 05:38:52;;;;;;;8.13;6.38;;;;;;;20.34;100.00;100835.50;5049717;28;20025;-70
2022/09/05 05:41:26;;;;;;;8.43;4.90;;;;;;;20.21;100.00;100780.28;5034316;28;20372;-71
2022/09/05 05:43:52;;;;;;;7.57;4.97;;;;;;;20.36;100.00;100776.84;5033823;28;20045;-70
2022/09/05 05:46:29;;;;;;;6.72;4.55;;;;;;;20.48;100.00;100783.91;5034088;28;20454;-73
2022/09/05 05:49:26;;;;;;;5.72;3.65;;;;;;;21.30;100.00;100836.09;5034246;28;20575;-71
2022/09/05 05:52:26;;;;;;;5.45;3.45;;;;;;;21.43;100.00;100839.66;5065658;28;20025;-70
2022/09/05 05:54:57;;;;;;;6.35;3.10;;;;;;;21.40;100.00;100830.31;5015233;28;20042;-70
2022/09/05 05:57:45;;;;;;;10.05;5.40;;;;;;;21.76;100.00;100845.41;5033605;28;20036;-70
2022/09/05 06:00:42;;;;;;;19.65;5.88;;;;;;;20.99;100.00;100849.97;5032358;28;20030;-70
2022/09/05 06:03:34;;;;;;;9.15;4.93;;;;;;;21.32;100.00;100850.63;5033223;28;20124;-69
2022/09/05 06:06:10;;;;;;;8.10;4.57;;;;;;;21.91;100.00;100826.38;5033552;28;20022;-69
2022/09/05 06:08:43;;;;;;;9.35;4.57;;;;;;;21.38;100.00;100846.84;5033551;28;20033;-72
2022/09/05 06:11:27;;;;;;;8.32;4.75;;;;;;;22.41;100.00;100859.53;5032342;28;20033;-69
2022/09/05 06:14:14;;;;;;;8.45;4.38;;;;;;;22.39;100.00;100849.25;5033602;28;20033;-69
2022/09/05 06:17:21;;;;;;;5.45;3.97;;;;;;;22.64;100.00;100845.97;5033609;28;20040;-69
2022/09/05 06:19:56;;;;;;;6.03;3.90;;;;;;;22.69;100.00;100853.47;5059705;28;20037;-69
2022/09/05 06:22:54;;;;;;;4.63;3.70;;;;;;;22.81;100.00;100796.47;5033451;28;20061;-70
2022/09/05 06:25:44;;;;;;;6.70;3.83;;;;;;;23.11;100.00;100840.31;5033266;28;20033;-72
2022/09/05 06:28:46;;;;;;;5.85;3.60;;;;;;;22.74;100.00;100857.41;5033005;28;20040;-69
2022/09/05 06:31:20;;;;;;;5.38;4.10;;;;;;;22.54;100.00;100797.38;5033324;28;20480;-70
2022/09/05 06:33:48;;;;;;;4.45;3.28;;;;;;;23.14;100.00;100851.31;5032923;28;20543;-71
2022/09/05 06:36:17;;;;;;;7.63;3.75;;;;;;;22.84;100.00;100853.31;5033059;28;20053;-70
2022/09/05 06:38:52;;;;;;;3.75;3.00;;;;;;;22.94;100.00;100866.50;5048352;28;20484;-71
2022/09/05 06:41:24;;;;;;;3.25;2.80;;;;;;;22.63;100.00;100786.44;5033131;28;20484;-70
2022/09/05 06:43:49;;;;;;;6.60;3.03;;;;;;;22.92;100.00;100865.78;5032932;28;20053;-70
2022/09/05 06:46:25;;;;;;;3.88;2.80;;;;;;;23.46;100.00;100863.94;5031523;28;20114;-71
2022/09/05 06:49:13;;;;;;;3.45;2.65;;;;;;;23.12;100.00;100854.94;5032975;28;20037;-72
2022/09/05 06:51:57;;;;;;;4.97;2.72;;;;;;;23.34;100.00;100862.16;5047932;28;20030;-70
2022/09/05 06:54:34;;;;;;;5.43;2.58;;;;;;;23.47;100.00;100876.84;5048222;28;20033;-71
2022/09/05 06:57:05;;;;;;;3.53;2.70;;;;;;;23.16;100.00;100869.38;5037339;28;20030;-70
2022/09/05 06:59:59;;;;;;;3.95;2.70;;;;;;;23.12;100.00;100876.53;5035079;28;20076;-71
2022/09/05 07:02:39;;;;;;;4.20;2.75;;;;;;;23.80;100.00;100869.34;5032077;28;20028;-71
2022/09/05 07:05:26;;;;;;;3.47;2.70;;;;;;;22.84;100.00;100770.31;5032178;28;20087;-69
2022/09/05 07:08:04;;;;;;;5.97;3.25;;;;;;;23.27;100.00;100804.63;5033257;28;20038;-70
2022/09/05 07:10:37;;;;;;;3.78;2.85;;;;;;;23.86;100.00;100891.47;5032603;28;20033;-71
2022/09/05 07:13:15;;;;;;;6.00;3.00;;;;;;;24.49;100.00;100883.59;5032115;28;20033;-71
2022/09/05 07:15:49;;;;;;;3.63;2.60;;;;;;;23.47;100.00;100878.59;5032339;28;20103;-70
2022/09/05 07:18:34;;;;;;;3.80;2.67;;;;;;;22.98;100.00;100788.38;5032444;28;20029;-70
2022/09/05 07:21:16;;;;;;;4.10;2.55;;;;;;;24.14;100.00;100825.47;5032670;28;20026;-70
2022/09/05 07:23:45;;;;;;;4.45;2.40;;;;;;;25.29;100.00;100872.50;5047890;28;20084;-70
2022/09/05 07:26:11;;;;;;;4.70;2.53;;;;;;;23.66;100.00;100859.06;5047358;28;20091;-71
2022/09/05 07:28:42;;;;;;;3.88;2.50;;;;;;;23.52;100.00;100806.41;5047270;28;20124;-70
2022/09/05 07:31:22;;;;;;;5.45;2.53;;;;;;;25.24;100.00;100878.06;5032208;28;20026;-70
2022/09/05 07:33:50;;;;;;;5.63;2.50;;;;;;;24.18;100.00;100806.13;5031928;28;20037;-71
2022/09/05 07:36:24;;;;;;;7.43;2.25;;;;;;;24.41;100.00;100818.28;5030329;28;20017;-72
2022/09/05 07:38:58;;;;;;;7.53;2.30;;;;;;;24.48;100.00;100851.56;5031740;28;20459;-69
2022/09/05 07:41:33;;;;;;;3.88;2.30;;;;;;;24.22;100.00;100795.41;5032003;28;20033;-71
2022/09/05 07:44:09;;;;;;;3.65;1.98;;;;;;;25.29;100.00;100857.72;5032140;28;20084;-71
2022/09/05 07:46:39;;;;;;;2.38;1.80;;;;;;;24.47;100.00;100818.69;5030655;28;20037;-71
2022/09/05 07:49:13;;;;;;;3.47;2.17;;;;;;;24.24;100.00;100858.50;5031808;28;20480;-72
2022/09/05 07:51:51;;;;;;;3.20;2.00;;;;;;;24.93;100.00;100868.25;5047089;28;20057;-69
2022/09/05 07:54:23;;;;;;;3.03;2.00;;;;;;;25.49;100.00;100846.66;5047219;28;20426;-70
2022/09/05 07:57:04;;;;;;;2.90;2.10;;;;;;;25.34;100.00;100829.56;5031560;28;20041;-70
2022/09/05 07:59:39;;;;;;;2.92;2.13;;;;;;;26.08;100.00;100842.09;5063657;28;20025;-70
2022/09/05 08:02:09;;;;;;;2.90;1.80;;;;;;;25.51;100.00;100847.34;5031543;28;20041;-70
2022/09/05 08:04:38;;;;;;;4.30;1.95;;;;;;;26.28;100.00;100764.88;5031226;28;20117;-70
2022/09/05 08:07:24;;;;;;;5.80;1.95;;;;;;;25.23;100.00;100766.22;5030366;28;20459;-70
2022/09/05 08:09:55;;;;;;;2.05;1.48;;;;;;;24.82;100.00;100790.13;5046195;28;20512;-71
2022/09/05 08:12:27;;;;;;;2.10;1.60;;;;;;;25.32;100.00;100859.25;5030839;28;20512;-69
2022/09/05 08:15:02;;;;;;;1.63;1.52;;;;;;;26.13;98.41;100839.94;5046305;28;20111;-70
2022/09/05 08:17:28;;;;;;;5.30;2.10;;;;;;;26.22;100.00;100839.22;5045938;28;20091;-72
2022/09/05 08:20:09;;;;;;;3.53;2.25;;;;;;;25.81;100.00;100849.41;5030899;28;20029;-69
2022/09/05 08:23:16;;;;;;;3.35;1.98;;;;;;;25.54;100.00;100841.09;5031221;28;20041;-70
2022/09/05 08:26:01;;;;;;;3.92;1.65;;;;;;;26.52;100.00;100815.06;5026050;28;20042;-71
2022/09/05 08:28:39;;;;;;;2.05;1.60;;;;;;;26.32;100.00;100840.16;5046171;28;20095;-71
2022/09/05 08:31:15;;;;;;;2.28;1.70;;;;;;;25.16;100.00;100726.78;5031134;28;20120;-70
2022/09/05 08:33:42;;;;;;;2.42;1.80;;;;;;;26.05;95.82;100745.00;5031333;28;20061;-72
2022/09/05 08:36:33;;;;;;;2.00;1.77;;;;;;;26.63;95.36;100828.06;5030862;28;20049;-71
2022/09/05 08:39:01;;;;;;;1.40;1.30;;;;;;;26.49;92.73;100820.53;5030955;28;20075;-70
2022/09/05 08:41:40;;;;;;;1.92;1.48;;;;;;;25.92;91.39;100805.09;5029978;28;20088;-71
2022/09/05 08:44:17;;;;;;;2.28;1.42;;;;;;;26.22;94.12;100820.13;5045947;28;20411;-71
2022/09/05 08:46:56;;;;;;;3.97;1.35;;;;;;;26.10;88.39;100719.41;5030644;28;20029;-71
2022/09/05 08:49:41;;;;;;;3.35;1.48;;;;;;;26.69;89.75;100830.19;5029498;28;20063;-70
2022/09/05 08:52:18;;;;;;;2.35;1.40;;;;;;;27.08;87.17;100785.16;5030846;28;20075;-71
2022/09/05 08:55:01;;;;;;;1.50;1.40;;;;;;;27.53;80.00;100822.28;5029026;28;20039;-70
2022/09/05 08:57:45;;;;;;;4.43;1.40;;;;;;;28.18;80.78;100825.31;5031051;28;20029;-70
2022/09/05 09:00:15;;;;;;;2.15;1.42;;;;;;;26.58;91.40;100819.78;5030449;28;20026;-70
2022/09/05 09:02:47;;;;;;;2.33;1.55;;;;;;;27.41;87.67;100815.50;5030800;28;20487;-70
2022/09/05 09:05:33;;;;;;;2.17;1.50;;;;;;;26.71;87.48;100763.06;5030771;28;20037;-70
2022/09/05 09:08:18;;;;;;;1.95;1.60;;;;;;;27.15;87.91;100832.50;5030306;28;20041;-71
2022/09/05 09:10:58;;;;;;;2.33;1.48;;;;;;;26.97;85.68;100818.34;5030212;28;20056;-71
2022/09/05 09:13:35;;;;;;;2.38;1.33;;;;;;;26.85;87.49;100828.00;5034246;28;20499;-71
2022/09/05 09:16:23;;;;;;;2.10;1.55;;;;;;;27.65;78.37;100802.97;5050369;28;20510;-71
2022/09/05 09:18:48;;;;;;;4.57;1.33;;;;;;;27.76;79.20;100823.75;5048946;28;20025;-71
2022/09/05 09:21:53;;;;;;;2.63;1.42;;;;;;;28.61;71.94;100819.72;5049369;28;20505;-70
2022/09/05 09:24:46;;;;;;;3.50;1.15;;;;;;;26.79;76.86;100765.03;5039244;28;20049;-71
2022/09/05 09:27:42;;;;;;;1.73;1.25;;;;;;;28.08;68.29;100821.84;5030433;28;20037;-70
2022/09/05 09:30:09;;;;;;;3.08;1.40;;;;;;;27.35;73.84;100748.91;5028842;28;20178;-70
2022/09/05 09:32:48;;;;;;;2.95;1.25;;;;;;;26.81;84.95;100753.53;5029319;28;20040;-71
2022/09/05 09:35:37;;;;;;;5.30;1.27;;;;;;;26.87;85.84;100815.66;5029758;28;20495;-69
2022/09/05 09:38:25;;;;;;;4.38;1.20;;;;;;;25.87;87.12;100736.84;5030170;28;20032;-68
2022/09/05 09:41:12;;;;;;;2.90;1.20;;;;;;;26.54;85.02;100819.19;5029980;28;20096;-70
2022/09/05 09:44:24;;;;;;;2.80;1.20;;;;;;;26.16;90.51;100818.00;5029516;28;20130;-70
2022/09/05 09:46:52;;;;;;;2.83;1.30;;;;;;;26.35;87.55;100747.75;5030007;28;20034;-72
2022/09/05 09:49:45;;;;;;;2.00;1.30;;;;;;;25.85;87.66;100750.97;5041723;28;20040;-71
2022/09/05 09:52:31;;;;;;;2.78;1.45;;;;;;;25.74;93.47;100801.31;5035810;28;20033;-71
2022/09/05 09:55:39;;;;;;;1.55;1.23;;;;;;;25.20;99.18;100795.91;5017626;28;20060;-70
2022/09/05 09:58:35;;;;;;;1.83;1.02;;;;;;;26.79;83.10;100798.97;5034710;28;20040;-74
2022/09/05 10:01:30;;;;;;;2.28;1.10;;;;;;;27.27;84.64;100795.72;5047717;28;20033;-70
2022/09/05 10:04:08;;;;;;;2.92;1.30;;;;;;;26.63;86.39;100796.75;5052844;28;20160;-72
2022/09/05 10:06:42;;;;;;;2.33;1.10;;;;;;;25.76;97.19;100802.03;5048799;28;20041;-72
2022/09/05 10:09:23;;;;;;;3.70;1.35;;;;;;;24.84;95.86;100723.19;5048649;28;20032;-72
2022/09/05 10:12:07;;;;;;;2.33;1.08;;;;;;;25.96;89.92;100792.66;5047425;28;20029;-71
2022/09/05 10:15:02;;;;;;;2.53;1.30;;;;;;;25.88;94.98;100793.25;5048357;28;20075;-70
2022/09/05 10:17:37;;;;;;;2.80;1.30;;;;;;;26.43;82.10;100784.50;5050110;28;20530;-70
2022/09/05 10:20:21;;;;;;;2.17;1.27;;;;;;;26.02;90.25;100713.94;5048548;28;20033;-70
2022/09/05 10:23:04;;;;;;;1.35;1.05;;;;;;;27.17;77.07;100781.78;5051343;28;20039;-70
2022/09/05 10:25:50;;;;;;;3.97;1.20;;;;;;;27.01;78.69;100692.63;5052945;28;20458;-70
2022/09/05 10:28:36;;;;;;;3.05;1.48;;;;;;;26.43;83.25;100784.50;5053225;28;20040;-71
2022/09/05 10:31:16;;;;;;;3.90;1.65;;;;;;;27.81;72.35;100731.88;5051928;28;20522;-70
2022/09/05 10:33:57;;;;;;;4.43;1.87;;;;;;;29.11;69.28;100776.69;5052958;28;20035;-72
2022/09/05 10:36:26;;;;;;;2.33;1.30;;;;;;;27.32;75.96;100701.25;5053023;28;20661;-70
2022/09/05 10:39:18;;;;;;;1.85;1.30;;;;;;;28.48;67.89;100777.28;5051843;28;20041;-69
2022/09/05 10:41:49;;;;;;;2.28;1.35;;;;;;;26.76;85.28;100773.13;5053148;28;20029;-72
2022/09/05 10:44:25;;;;;;;2.28;1.23;;;;;;;26.53;80.47;100694.91;5052784;28;20462;-72
2022/09/05 10:46:51;;;;;;;2.95;1.50;;;;;;;27.40;78.37;100772.84;5053342;28;20060;-71
2022/09/05 10:49:23;;;;;;;3.88;1.38;;;;;;;27.74;73.46;100728.13;5052932;28;20060;-69
2022/09/05 10:52:02;;;;;;;7.03;2.40;;;;;;;28.00;72.89;100730.16;5053089;28;20598;-71
2022/09/05 10:54:56;;;;;;;2.45;1.20;;;;;;;28.33;65.43;100772.59;5051692;28;20427;-70
2022/09/05 10:57:49;;;;;;;1.45;1.13;;;;;;;27.44;72.10;100762.97;5051479;28;20041;-71
2022/09/05 11:00:56;;;;;;;1.88;1.17;;;;;;;26.67;80.25;100766.84;5053231;28;20032;-70
2022/09/05 11:03:31;;;;;;;1.90;1.02;;;;;;;26.08;81.21;100698.69;5052451;28;20103;-71
2022/09/05 11:06:00;;;;;;;1.95;1.30;;;;;;;27.36;72.39;100741.88;5051016;28;20115;-70
2022/09/05 11:08:35;;;;;;;1.88;1.10;;;;;;;27.44;68.95;100742.88;5052576;28;20033;-70
2022/09/05 11:11:13;;;;;;;3.05;1.23;;;;;;;27.74;68.21;100757.72;5052247;28;20477;-71
2022/09/05 11:13:54;;;;;;;2.95;1.20;;;;;;;27.66;64.33;100701.81;5051181;28;20056;-70
2022/09/05 11:16:22;;;;;;;;;;;;;;;28.06;64.63;100758.38;5052823;28;20033;-70
2022/09/05 11:18:51;;;;;;;1.30;1.05;;;;;;;27.74;61.64;100744.63;5052290;28;19927;-70
2022/09/05 11:21:23;;;;;;;2.65;1.00;;;;;;;27.21;68.27;100757.06;5050579;28;20025;-71
2022/09/05 11:23:55;;;;;;;1.75;1.10;;;;;;;28.10;62.73;100743.22;5051943;28;20557;-71
2022/09/05 11:26:32;;;;;;;2.13;1.00;;;;;;;27.00;71.08;100765.88;5052106;28;20031;-70
2022/09/05 11:29:16;;;;;;;2.03;1.35;;;;;;;26.79;74.19;100708.44;5052023;28;20509;-70
2022/09/05 11:32:19;;;;;;;3.40;1.10;;;;;;;26.87;79.72;100753.00;5050264;28;20036;-71
2022/09/05 11:34:59;;;;;;;2.40;1.20;;;;;;;26.28;81.94;100767.47;5051941;28;20102;-70
2022/09/05 11:37:49;;;;;;;1.20;1.10;;;;;;;27.62;67.25;100676.91;5051636;28;20029;-71
2022/09/05 11:40:33;;;;;;;1.77;1.02;;;;;;;27.97;59.84;100750.50;5052059;28;20029;-71
2022/09/05 11:43:27;;;;;;;1.05;0.95;;;;;;;28.87;57.68;100736.19;5050511;28;20041;-70
2022/09/05 11:46:20;;;;;;;1.73;0.95;;;;;;;28.91;51.96;100738.41;5014769;28;20077;-70
2022/09/05 11:48:55;;;;;;;1.70;0.80;;;;;;;28.44;57.20;100733.19;5051440;28;20116;-70
2022/09/05 11:51:37;;;;;;;2.13;1.15;;;;;;;28.98;53.68;100731.59;5052294;28;20033;-70
2022/09/05 11:54:23;;;;;;;1.33;0.90;;;;;;;28.38;54.93;100739.81;5051797;28;20063;-72
2022/09/05 11:57:10;;;;;;;1.38;1.08;;;;;;;28.02;57.24;100737.84;5043675;28;20045;-71
2022/09/05 11:59:51;;;;;;;3.58;1.20;;;;;;;28.60;55.27;100723.84;5051675;28;20107;-71
2022/09/05 12:02:37;;;;;;;;;;;;;;;27.91;60.05;100732.72;5051869;28;20028;-71
2022/09/05 12:05:06;;;;;;;2.15;1.10;;;;;;;27.20;64.35;100725.81;5051537;28;19908;-71
2022/09/05 12:07:37;;;;;;;3.17;1.27;;;;;;;28.50;56.89;100727.41;5051321;28;20246;-71
2022/09/05 12:10:13;;;;;;;;;;;;;;;28.87;55.62;100720.47;5050656;28;20055;-71
2022/09/05 12:13:02;;;;;;;2.53;1.10;;;;;;;27.17;61.12;100719.09;5049962;28;19999;-70
2022/09/05 12:15:33;;;;;;;1.70;1.08;;;;;;;26.67;63.52;100646.78;5049616;28;20047;-71
2022/09/05 12:18:24;;;;;;;3.78;1.30;;;;;;;27.61;65.52;100720.53;5051238;28;20036;-70
2022/09/05 12:21:08;;;;;;;1.92;0.90;;;;;;;27.30;64.56;100718.84;5051142;28;20130;-71
2022/09/05 12:23:36;;;;;;;1.88;1.20;;;;;;;28.22;62.24;100716.81;5051305;28;20458;-71